Time;durP1;ratioP1;P1;durP2;ratioP2;P2;SDS_P1;SDS_P2;PMS_P1;PMS_P2;Temp;Humidity;BMP_temperature;BMP_pressure;BME280_temperature;BME280_humidity;BME280_pressure;Samples;Min_cycle;Max_cycle;Signal;HPM_P1;HPM_P2
2023/04/15 00:00:50;;;;;;;6.10;5.40;;;;;;;7.56;83.93;100117.09;4984518;28;20622;-72
2023/04/15 00:03:17;;;;;;;6.77;5.23;;;;;;;7.55;84.57;100118.91;4985423;28;20254;-69
2023/04/15 00:05:45;;;;;;;7.63;5.53;;;;;;;7.52;84.04;100110.28;4987597;28;20210;-70
2023/04/15 00:08:12;;;;;;;7.33;5.07;;;;;;;7.50;85.01;100105.09;4985714;28;20500;-71
2023/04/15 00:10:38;;;;;;;7.50;5.83;;;;;;;7.47;84.91;100110.56;4985647;28;20210;-74
2023/04/15 00:13:05;;;;;;;7.10;5.33;;;;;;;7.45;85.39;100101.00;4982804;28;20210;-72
2023/04/15 00:15:31;;;;;;;6.97;5.07;;;;;;;7.41;85.12;100100.31;4984811;28;20230;-70
2023/04/15 00:17:58;;;;;;;6.50;5.43;;;;;;;7.39;84.89;100101.34;4983828;28;20211;-72
2023/04/15 00:20:25;;;;;;;5.57;5.07;;;;;;;7.38;85.65;100100.50;4985791;28;20211;-72
2023/04/15 00:22:53;;;;;;;7.17;5.30;;;;;;;7.37;85.06;100095.28;4984550;28;20215;-71
2023/04/15 00:25:19;;;;;;;7.03;5.30;;;;;;;7.35;85.30;100100.66;4984639;28;20568;-72
2023/04/15 00:27:46;;;;;;;5.97;5.13;;;;;;;7.33;86.04;100097.28;4985640;28;20668;-71
2023/04/15 00:30:13;;;;;;;5.63;5.07;;;;;;;7.31;86.28;100097.38;4986632;28;20228;-71
2023/04/15 00:32:41;;;;;;;7.40;4.90;;;;;;;7.29;86.35;100090.44;4985504;28;20239;-72
2023/04/15 00:35:08;;;;;;;7.10;4.60;;;;;;;7.28;85.75;100096.69;4982908;28;20227;-71
2023/04/15 00:37:35;;;;;;;5.90;5.10;;;;;;;7.26;86.36;100095.94;4990197;28;20204;-72
2023/04/15 00:40:05;;;;;;;6.50;5.17;;;;;;;7.23;86.35;100093.44;4985576;28;20231;-71
2023/04/15 00:42:31;;;;;;;6.70;5.13;;;;;;;7.23;86.23;100091.66;4983510;28;20668;-72
2023/04/15 00:44:58;;;;;;;7.63;5.27;;;;;;;7.23;86.44;100090.81;4984471;28;20215;-72
2023/04/15 00:47:26;;;;;;;7.23;5.50;;;;;;;7.21;86.67;100079.44;4988523;28;20238;-74
2023/04/15 00:49:52;;;;;;;6.67;5.23;;;;;;;7.20;86.72;100081.22;4985245;28;20211;-71
2023/04/15 00:52:18;;;;;;;8.87;5.67;;;;;;;7.20;86.97;100083.88;4984784;28;20228;-71
2023/04/15 00:54:45;;;;;;;6.93;5.47;;;;;;;7.20;87.29;100094.47;4989473;28;20215;-72
2023/04/15 00:57:13;;;;;;;6.33;5.50;;;;;;;7.18;87.62;100083.13;4985856;28;20236;-70
2023/04/15 00:59:39;;;;;;;6.80;5.83;;;;;;;7.16;87.53;100084.19;4984113;28;20210;-71
2023/04/15 01:02:06;;;;;;;6.50;5.27;;;;;;;7.15;87.63;100087.75;4984699;28;20231;-72
2023/04/15 01:04:33;;;;;;;7.00;5.47;;;;;;;7.15;88.25;100082.47;4984801;28;20215;-71
2023/04/15 01:07:00;;;;;;;7.00;5.40;;;;;;;7.15;87.94;100079.81;4984954;28;20593;-71
2023/04/15 01:09:26;;;;;;;6.83;5.57;;;;;;;7.14;88.15;100080.75;4983975;28;20235;-73
2023/04/15 01:11:53;;;;;;;5.97;4.93;;;;;;;7.13;88.31;100074.63;4984703;28;20274;-72
2023/04/15 01:14:21;;;;;;;6.83;5.67;;;;;;;7.12;88.44;100077.34;4983076;28;20231;-73
2023/04/15 01:16:47;;;;;;;6.10;5.50;;;;;;;7.11;88.57;100079.13;4985366;28;20733;-72
2023/04/15 01:19:17;;;;;;;7.97;5.90;;;;;;;7.10;88.07;100072.13;4982788;28;20580;-74
2023/04/15 01:21:44;;;;;;;7.03;5.50;;;;;;;7.09;88.54;100080.16;4981360;28;20255;-72
2023/04/15 01:24:11;;;;;;;6.53;5.50;;;;;;;7.09;89.01;100075.72;4987395;28;20604;-74
2023/04/15 01:26:40;;;;;;;6.80;5.70;;;;;;;7.09;88.63;100070.44;4986436;28;20204;-72
2023/04/15 01:29:07;;;;;;;6.40;5.70;;;;;;;7.08;88.64;100071.38;4984932;28;20203;-73
2023/04/15 01:31:34;;;;;;;7.57;5.63;;;;;;;7.09;89.09;100072.22;4986574;28;20306;-71
2023/04/15 01:34:01;;;;;;;5.97;5.27;;;;;;;7.08;89.18;100071.38;4986524;28;20407;-74
2023/04/15 01:36:28;;;;;;;6.83;6.03;;;;;;;7.08;88.90;100068.72;4987068;28;20275;-72
2023/04/15 01:38:56;;;;;;;7.17;5.37;;;;;;;7.08;89.20;100071.38;4987831;28;20214;-72
2023/04/15 01:41:24;;;;;;;8.27;6.00;;;;;;;7.08;89.65;100073.16;4983041;28;20294;-71
2023/04/15 01:43:53;;;;;;;6.87;5.57;;;;;;;7.08;89.03;100071.38;4982753;28;20207;-72
2023/04/15 01:46:19;;;;;;;7.50;6.37;;;;;;;7.07;89.76;100074.09;4986097;28;20241;-71
2023/04/15 01:48:46;;;;;;;8.47;6.03;;;;;;;7.07;89.79;100068.81;4985268;28;20266;-74
2023/04/15 01:51:12;;;;;;;7.07;5.83;;;;;;;7.06;89.66;100065.31;4983242;28;20220;-72
2023/04/15 01:53:39;;;;;;;7.57;6.47;;;;;;;7.06;89.87;100061.81;4985715;28;20242;-71
2023/04/15 01:56:06;;;;;;;8.83;6.50;;;;;;;7.05;89.98;100066.25;4984608;28;20228;-71
2023/04/15 01:58:33;;;;;;;6.50;5.83;;;;;;;7.06;90.32;100056.50;4984047;28;20623;-71
2023/04/15 02:01:01;;;;;;;6.80;6.00;;;;;;;7.06;90.38;100059.16;4985447;28;20290;-71
2023/04/15 02:03:28;;;;;;;7.47;6.13;;;;;;;7.06;90.06;100057.34;4983550;28;20207;-71
2023/04/15 02:05:55;;;;;;;8.90;6.43;;;;;;;7.04;90.37;100059.25;4986741;28;20208;-71
2023/04/15 02:08:22;;;;;;;8.57;6.60;;;;;;;7.05;90.45;100060.94;4987505;28;20203;-71
2023/04/15 02:10:48;;;;;;;8.60;6.70;;;;;;;7.06;90.78;100062.66;4986233;28;20594;-71
2023/04/15 02:13:15;;;;;;;8.70;6.77;;;;;;;7.07;90.59;100058.22;4984181;28;20226;-72
2023/04/15 02:15:47;;;;;;;9.07;7.07;;;;;;;7.06;90.89;100054.72;4981301;28;20231;-70
2023/04/15 02:18:15;;;;;;;9.23;6.93;;;;;;;7.07;90.82;100058.22;4982552;28;20215;-72
2023/04/15 02:20:42;;;;;;;7.97;7.07;;;;;;;7.07;90.53;100051.13;4985131;28;20330;-74
2023/04/15 02:23:09;;;;;;;8.90;7.37;;;;;;;7.07;91.19;100050.28;4983729;28;20203;-72
2023/04/15 02:25:37;;;;;;;9.57;7.73;;;;;;;7.07;91.35;100048.47;4983794;28;20242;-72
2023/04/15 02:28:05;;;;;;;9.03;7.13;;;;;;;7.08;90.88;100042.25;4984100;28;20203;-73
2023/04/15 02:30:31;;;;;;;9.30;8.00;;;;;;;7.09;91.19;100048.38;4985794;28;20290;-71
2023/04/15 02:32:57;;;;;;;10.97;8.27;;;;;;;7.09;91.02;100061.63;4983535;28;20291;-72
2023/04/15 02:35:25;;;;;;;10.77;7.80;;;;;;;7.11;91.27;100054.44;4984632;28;20207;-72
2023/04/15 02:37:52;;;;;;;11.10;8.50;;;;;;;7.11;91.66;100057.94;4979193;28;20226;-73
2023/04/15 02:40:19;;;;;;;10.60;7.80;;;;;;;7.12;91.32;100061.47;4985712;28;20603;-70
2023/04/15 02:42:45;;;;;;;11.43;8.27;;;;;;;7.13;91.48;100063.16;4983378;28;20239;-70
2023/04/15 02:45:12;;;;;;;11.97;8.03;;;;;;;7.14;91.91;100057.78;4986384;28;20211;-72
2023/04/15 02:47:40;;;;;;;11.40;8.70;;;;;;;7.13;91.97;100056.06;4984148;28;20475;-72
2023/04/15 02:50:08;;;;;;;11.17;8.53;;;;;;;7.13;92.22;100064.00;4985031;28;20207;-71
2023/04/15 02:52:36;;;;;;;11.87;8.80;;;;;;;7.14;91.61;100062.22;4987587;28;20438;-71
2023/04/15 02:55:04;;;;;;;12.93;9.63;;;;;;;7.13;92.27;100061.38;4982144;28;20219;-72
2023/04/15 02:57:30;;;;;;;15.40;9.90;;;;;;;7.13;92.03;100069.31;4983569;28;20220;-71
2023/04/15 02:59:57;;;;;;;11.50;9.57;;;;;;;7.14;91.67;100068.38;4982948;28;20673;-71
2023/04/15 03:02:24;;;;;;;13.87;9.73;;;;;;;7.16;92.12;100068.28;4982289;28;20231;-71
2023/04/15 03:04:50;;;;;;;12.23;9.73;;;;;;;7.18;92.51;100066.38;4985123;28;20262;-69
2023/04/15 03:07:17;;;;;;;14.13;9.97;;;;;;;7.19;92.57;100070.72;4983019;28;20485;-70
2023/04/15 03:09:46;;;;;;;13.73;10.40;;;;;;;7.19;92.43;100073.38;4983325;28;20199;-73
2023/04/15 03:12:13;;;;;;;13.97;9.37;;;;;;;7.19;92.20;100071.59;4979727;28;20247;-73
2023/04/15 03:14:39;;;;;;;13.63;9.27;;;;;;;7.19;92.59;100062.78;4985376;28;20326;-71
2023/04/15 03:17:06;;;;;;;13.90;9.63;;;;;;;7.19;92.96;100063.63;4985364;28;20238;-72
2023/04/15 03:19:32;;;;;;;14.93;10.13;;;;;;;7.19;92.92;100068.94;4983142;28;20207;-73
2023/04/15 03:21:59;;;;;;;13.50;9.90;;;;;;;7.20;92.41;100065.34;4984751;28;20231;-72
2023/04/15 03:24:27;;;;;;;13.60;10.17;;;;;;;7.21;92.88;100066.19;4982158;28;20703;-71
2023/04/15 03:26:56;;;;;;;14.57;10.73;;;;;;;7.21;92.89;100066.19;4984910;28;20262;-73
2023/04/15 03:29:23;;;;;;;16.83;10.33;;;;;;;7.22;92.66;100062.59;4982264;28;20208;-72
2023/04/15 03:31:50;;;;;;;14.20;10.60;;;;;;;7.21;93.15;100066.19;4985357;28;20239;-73
2023/04/15 03:34:16;;;;;;;15.27;11.00;;;;;;;7.21;93.32;100060.91;4982081;28;20322;-67
2023/04/15 03:36:42;;;;;;;14.57;10.70;;;;;;;7.21;93.33;100055.59;4985434;28;20234;-72
2023/04/15 03:39:09;;;;;;;14.90;11.47;;;;;;;7.22;93.83;100052.00;4985246;28;20215;-71
2023/04/15 03:41:35;;;;;;;15.43;11.17;;;;;;;7.22;93.93;100054.66;4989677;28;20216;-73
2023/04/15 03:44:03;;;;;;;15.07;10.73;;;;;;;7.22;94.63;100047.56;4984724;28;20211;-72
2023/04/15 03:46:30;;;;;;;15.70;11.60;;;;;;;7.23;94.01;100051.06;4988487;28;20208;-69
2023/04/15 03:48:56;;;;;;;17.43;11.03;;;;;;;7.23;94.91;100053.72;4984797;28;20207;-71
2023/04/15 03:51:22;;;;;;;14.93;10.63;;;;;;;7.23;94.42;100059.03;4988937;28;20232;-72
2023/04/15 03:53:49;;;;;;;16.33;12.00;;;;;;;7.25;94.39;100055.34;4985083;28;20219;-73
2023/04/15 03:56:16;;;;;;;16.70;11.67;;;;;;;7.25;95.23;100058.00;4989026;28;20219;-72
2023/04/15 03:58:42;;;;;;;17.00;11.83;;;;;;;7.22;95.47;100063.47;4985150;28;20856;-68
2023/04/15 04:01:10;;;;;;;16.67;11.63;;;;;;;7.20;94.96;100065.34;4987195;28;20231;-73
2023/04/15 04:03:37;;;;;;;16.03;11.13;;;;;;;7.17;95.79;100065.53;4986794;28;20215;-73
2023/04/15 04:06:03;;;;;;;16.03;11.90;;;;;;;7.17;95.50;100065.53;4988863;28;20239;-68
2023/04/15 04:08:30;;;;;;;15.90;10.57;;;;;;;7.16;95.49;100068.28;4987126;28;20600;-72
2023/04/15 04:10:56;;;;;;;17.97;12.23;;;;;;;7.14;96.09;100062.22;4990985;28;20235;-72
2023/04/15 04:13:23;;;;;;;16.87;12.13;;;;;;;7.11;95.60;100065.91;4984882;28;20831;-73
2023/04/15 04:15:49;;;;;;;18.63;12.43;;;;;;;7.09;96.49;100064.28;4986984;28;20207;-72
2023/04/15 04:18:17;;;;;;;17.60;11.80;;;;;;;7.05;95.62;100062.75;4985289;28;20231;-72
2023/04/15 04:20:44;;;;;;;18.17;13.20;;;;;;;7.03;96.28;100067.28;4987026;28;20432;-73
2023/04/15 04:23:10;;;;;;;17.40;13.50;;;;;;;7.02;96.47;100070.84;4988573;28;20218;-72
2023/04/15 04:25:37;;;;;;;19.27;13.57;;;;;;;7.01;96.40;100064.72;4986605;28;20216;-71
2023/04/15 04:28:03;;;;;;;19.97;13.57;;;;;;;7.00;96.77;100064.78;4987187;28;20204;-71
2023/04/15 04:30:30;;;;;;;19.90;13.80;;;;;;;7.00;97.44;100062.16;4983066;28;20651;-70
2023/04/15 04:32:56;;;;;;;21.67;13.87;;;;;;;7.01;97.11;100063.84;4991180;28;20214;-73
2023/04/15 04:35:24;;;;;;;20.87;13.87;;;;;;;7.00;97.68;100067.44;4988012;28;20208;-71
2023/04/15 04:37:51;;;;;;;20.70;13.87;;;;;;;7.00;97.52;100067.44;4984903;28;20236;-71
2023/04/15 04:40:17;;;;;;;22.63;14.93;;;;;;;6.99;97.82;100065.75;4984634;28;20210;-69
2023/04/15 04:42:44;;;;;;;23.97;15.67;;;;;;;6.97;97.87;100063.22;4984347;28;20235;-70
2023/04/15 04:45:11;;;;;;;22.93;15.37;;;;;;;6.97;98.52;100060.56;4986163;28;20207;-70
2023/04/15 04:47:37;;;;;;;22.53;15.37;;;;;;;6.96;98.12;100067.66;4986354;28;20208;-70
2023/04/15 04:50:04;;;;;;;25.53;15.20;;;;;;;6.95;98.36;100060.66;4987763;28;20207;-72
2023/04/15 04:52:32;;;;;;;25.67;17.23;;;;;;;6.94;98.29;100058.94;4986680;28;20228;-70
2023/04/15 04:54:59;;;;;;;25.40;15.70;;;;;;;6.94;98.83;100056.28;4986903;28;20716;-71
2023/04/15 04:57:25;;;;;;;26.47;16.73;;;;;;;6.93;98.65;100062.53;4985976;28;20235;-68
2023/04/15 04:59:52;;;;;;;23.97;16.43;;;;;;;6.91;98.79;100061.75;4987933;28;20524;-71
2023/04/15 05:02:18;;;;;;;28.73;17.30;;;;;;;6.89;98.95;100058.34;4982541;28;20232;-70
2023/04/15 05:04:44;;;;;;;24.37;15.83;;;;;;;6.87;99.00;100057.56;4985891;28;20204;-68
2023/04/15 05:07:11;;;;;;;29.50;17.63;;;;;;;6.86;100.00;100062.94;4985962;28;20204;-70
2023/04/15 05:09:39;;;;;;;28.67;17.43;;;;;;;6.85;100.00;100059.44;4985436;28;20212;-70
2023/04/15 05:12:06;;;;;;;28.13;17.27;;;;;;;6.83;100.00;100060.47;4984896;28;20227;-72
2023/04/15 05:14:33;;;;;;;29.20;17.43;;;;;;;6.80;100.00;100064.19;4985289;28;20222;-71
2023/04/15 05:16:59;;;;;;;31.53;17.80;;;;;;;6.79;99.98;100067.75;4986015;28;20342;-71
2023/04/15 05:19:25;;;;;;;29.00;17.90;;;;;;;6.78;100.00;100066.06;4986700;28;20212;-70
2023/04/15 05:21:52;;;;;;;28.13;18.30;;;;;;;6.78;100.00;100070.50;4984920;28;20231;-68
2023/04/15 05:24:18;;;;;;;29.27;17.77;;;;;;;6.77;100.00;100069.63;4985743;28;20473;-70
2023/04/15 05:26:46;;;;;;;28.13;17.43;;;;;;;6.77;100.00;100071.44;4987618;28;20210;-72
2023/04/15 05:29:13;;;;;;;29.80;18.03;;;;;;;6.75;100.00;100068.00;4983737;28;20262;-71
2023/04/15 05:31:39;;;;;;;28.10;17.40;;;;;;;6.74;100.00;100061.00;4984622;28;20219;-72
2023/04/15 05:34:06;;;;;;;27.87;17.80;;;;;;;6.73;100.00;100070.75;4984869;28;20199;-69
2023/04/15 05:36:32;;;;;;;26.83;17.30;;;;;;;6.72;100.00;100058.44;4987160;28;20286;-70
2023/04/15 05:38:59;;;;;;;30.40;17.87;;;;;;;6.73;100.00;100069.88;4983834;28;20211;-71
2023/04/15 05:41:25;;;;;;;27.03;16.47;;;;;;;6.72;100.00;100062.88;4985856;28;20260;-70
2023/04/15 05:43:53;;;;;;;30.07;17.77;;;;;;;6.72;100.00;100062.88;4982770;28;20207;-70
2023/04/15 05:46:20;;;;;;;29.27;16.27;;;;;;;6.70;100.00;100057.69;4986158;28;20773;-71
2023/04/15 05:48:46;;;;;;;28.27;16.47;;;;;;;6.71;100.00;100062.03;4985546;28;20288;-71
2023/04/15 05:51:13;;;;;;;29.23;17.93;;;;;;;6.71;100.00;100062.03;4986292;28;20227;-68
2023/04/15 05:53:40;;;;;;;30.53;17.23;;;;;;;6.70;100.00;100068.25;4984320;28;20207;-68
2023/04/15 05:56:07;;;;;;;27.70;17.47;;;;;;;6.71;100.00;100066.47;4981057;28;20307;-70
2023/04/15 05:58:33;;;;;;;25.93;17.13;;;;;;;6.70;100.00;100060.31;4981904;28;21841;-69
2023/04/15 06:01:01;;;;;;;28.27;17.20;;;;;;;6.70;100.00;100060.31;4984886;28;20258;-68
2023/04/15 06:03:28;;;;;;;28.87;17.93;;;;;;;6.72;100.00;100060.25;4982977;28;20210;-68
2023/04/15 06:05:55;;;;;;;25.93;15.93;;;;;;;6.73;100.00;100057.50;4982950;28;20303;-68
2023/04/15 06:08:21;;;;;;;25.90;16.40;;;;;;;6.75;100.00;100057.44;4985273;28;20232;-66
2023/04/15 06:10:48;;;;;;;25.57;16.70;;;;;;;6.74;100.00;100050.44;4986586;28;20224;-66
2023/04/15 06:13:15;;;;;;;22.90;15.70;;;;;;;6.75;100.00;100060.94;4985349;28;20207;-69
2023/04/15 06:15:42;;;;;;;25.53;15.93;;;;;;;6.76;100.00;100065.28;4985858;28;20204;-69
2023/04/15 06:18:10;;;;;;;21.33;14.30;;;;;;;6.78;100.00;100068.69;4984401;28;20246;-68
2023/04/15 06:20:37;;;;;;;22.77;14.33;;;;;;;6.77;100.00;100064.34;4985588;28;20208;-69
2023/04/15 06:23:03;;;;;;;23.03;15.60;;;;;;;6.78;100.00;100063.41;4983000;28;20721;-70
2023/04/15 06:25:30;;;;;;;24.57;15.43;;;;;;;6.79;100.00;100061.63;4983235;28;20207;-70
2023/04/15 06:27:56;;;;;;;22.20;14.90;;;;;;;6.79;100.00;100066.91;4983359;28;20208;-70
2023/04/15 06:30:23;;;;;;;22.03;14.03;;;;;;;6.77;100.00;100064.34;4984913;28;20200;-67
2023/04/15 06:32:49;;;;;;;18.73;13.57;;;;;;;6.76;100.00;100070.56;4984515;28;20222;-70
2023/04/15 06:35:17;;;;;;;21.40;15.33;;;;;;;6.77;100.00;100074.94;4983947;28;20218;-68
2023/04/15 06:37:43;;;;;;;20.37;14.00;;;;;;;6.77;100.00;100068.78;4983879;28;20224;-69
2023/04/15 06:40:10;;;;;;;19.03;13.80;;;;;;;6.77;100.00;100067.00;4982530;28;20199;-69
2023/04/15 06:42:37;;;;;;;20.80;13.93;;;;;;;6.77;100.00;100060.84;4984885;28;20235;-70
2023/04/15 06:45:04;;;;;;;19.07;12.53;;;;;;;6.77;100.00;100067.00;4981380;28;20227;-69
2023/04/15 06:47:31;;;;;;;19.00;12.70;;;;;;;6.77;100.00;100064.34;4984850;28;20609;-69
2023/04/15 06:49:57;;;;;;;18.03;13.13;;;;;;;6.78;100.00;100063.41;4981519;28;20665;-71
2023/04/15 06:52:25;;;;;;;17.93;11.70;;;;;;;6.78;100.00;100071.34;4984132;28;20743;-70
2023/04/15 06:54:51;;;;;;;15.80;11.97;;;;;;;6.79;100.00;100074.84;4983570;28;20727;-68
2023/04/15 06:57:18;;;;;;;16.33;12.63;;;;;;;6.78;100.00;100079.28;4983722;28;20598;-67
2023/04/15 06:59:44;;;;;;;17.03;11.23;;;;;;;6.80;100.00;100074.75;4984084;28;20211;-69
2023/04/15 07:02:13;;;;;;;15.50;11.90;;;;;;;6.79;100.00;100075.69;4981240;28;20231;-69
2023/04/15 07:04:39;;;;;;;16.10;11.23;;;;;;;6.79;100.00;100070.41;4984473;28;20239;-69
2023/04/15 07:07:07;;;;;;;16.93;12.13;;;;;;;6.80;100.00;100076.56;4986738;28;20456;-70
2023/04/15 07:09:34;;;;;;;13.97;10.57;;;;;;;6.80;100.00;100076.56;4978364;28;20263;-69
2023/04/15 07:12:01;;;;;;;14.73;10.57;;;;;;;6.80;100.00;100077.41;4982697;28;20222;-69
2023/04/15 07:14:28;;;;;;;15.70;11.13;;;;;;;6.82;100.00;100090.53;4983034;28;20302;-68
2023/04/15 07:16:55;;;;;;;13.97;10.43;;;;;;;6.84;100.00;100092.16;4983874;28;21100;-69
2023/04/15 07:19:22;;;;;;;16.00;10.50;;;;;;;6.85;100.00;100088.56;4983082;28;20212;-68
2023/04/15 07:21:50;;;;;;;13.90;10.57;;;;;;;6.87;100.00;100102.56;4984404;28;20766;-69
2023/04/15 07:24:18;;;;;;;14.77;11.47;;;;;;;6.89;100.00;100102.47;4984652;28;20726;-69
2023/04/15 07:26:46;;;;;;;13.30;10.40;;;;;;;6.91;100.00;100106.75;4985620;28;20199;-70
2023/04/15 07:29:12;;;;;;;13.37;10.93;;;;;;;6.94;100.00;100100.44;4981632;28;20674;-70
2023/04/15 07:31:40;;;;;;;15.80;12.13;;;;;;;6.96;100.00;100101.22;4983362;28;20900;-69
2023/04/15 07:34:07;;;;;;;14.00;10.47;;;;;;;6.99;100.00;100108.13;4982186;28;20261;-67
2023/04/15 07:36:34;;;;;;;14.73;10.77;;;;;;;7.01;100.00;100103.56;4983399;28;20241;-72
2023/04/15 07:39:02;;;;;;;13.97;11.03;;;;;;;7.02;100.00;100107.94;4980145;28;20322;-71
2023/04/15 07:41:29;;;;;;;12.73;10.33;;;;;;;7.05;100.00;100105.09;4984624;28;20227;-71
2023/04/15 07:43:57;;;;;;;13.37;9.70;;;;;;;7.07;100.00;100108.53;4978842;28;20703;-72
2023/04/15 07:46:26;;;;;;;13.17;10.80;;;;;;;7.09;100.00;100114.59;4987791;28;20223;-71
2023/04/15 07:48:52;;;;;;;13.23;11.20;;;;;;;7.12;100.00;100117.06;4980275;28;20254;-71
2023/04/15 07:51:19;;;;;;;13.17;10.93;;;;;;;7.14;100.00;100118.69;4987892;28;20227;-72
2023/04/15 07:53:46;;;;;;;13.27;10.20;;;;;;;7.16;100.00;100115.94;4980181;28;20311;-67
2023/04/15 07:56:12;;;;;;;12.10;9.67;;;;;;;7.19;100.00;100115.75;4982561;28;20208;-68
2023/04/15 07:58:39;;;;;;;14.70;11.17;;;;;;;7.20;100.00;100122.75;4982069;28;20754;-70
2023/04/15 08:01:07;;;;;;;11.03;9.07;;;;;;;7.20;100.00;100120.09;4983922;28;20251;-68
2023/04/15 08:03:34;;;;;;;10.50;9.13;;;;;;;7.22;100.00;100127.03;4981862;28;20211;-69
2023/04/15 08:06:00;;;;;;;10.83;9.30;;;;;;;7.23;100.00;100118.13;4983865;28;20246;-66
2023/04/15 08:08:27;;;;;;;10.30;8.67;;;;;;;7.24;100.00;100113.69;4981455;28;20203;-67
2023/04/15 08:10:53;;;;;;;11.40;9.00;;;;;;;7.27;100.00;100121.47;4978720;28;20235;-66
2023/04/15 08:13:20;;;;;;;9.73;8.33;;;;;;;7.29;100.00;100119.59;4980536;28;20218;-67
2023/04/15 08:15:53;;;;;;;11.40;9.07;;;;;;;7.30;100.00;100113.34;4983158;28;20210;-68
2023/04/15 08:18:21;;;;;;;12.00;9.47;;;;;;;7.33;100.00;100115.81;4982381;28;20227;-68
2023/04/15 08:20:48;;;;;;;11.97;9.77;;;;;;;7.32;100.00;100116.78;4981784;28;20227;-68
2023/04/15 08:23:14;;;;;;;10.20;8.60;;;;;;;7.34;100.00;100125.47;4986646;28;20206;-68
2023/04/15 08:25:41;;;;;;;10.20;8.17;;;;;;;7.36;100.00;100120.91;4987045;28;20207;-67
2023/04/15 08:28:08;;;;;;;8.83;7.73;;;;;;;7.37;100.00;100121.78;4985617;28;20206;-67
2023/04/15 08:30:35;;;;;;;9.47;8.33;;;;;;;7.37;100.00;100119.13;4987193;28;20208;-68
2023/04/15 08:33:02;;;;;;;9.00;8.10;;;;;;;7.38;100.00;100111.09;4985619;28;20212;-68
2023/04/15 08:35:30;;;;;;;9.10;7.40;;;;;;;7.41;100.00;100115.34;4984927;28;20262;-66
2023/04/15 08:37:56;;;;;;;7.83;7.03;;;;;;;7.41;100.00;100110.91;4984264;28;20310;-66
2023/04/15 08:40:33;;;;;;;8.33;7.40;;;;;;;7.42;100.00;100120.56;4986148;28;20698;-66
2023/04/15 08:43:02;;;;;;;8.73;7.23;;;;;;;7.44;100.00;100131.09;4984102;28;20239;-68
2023/04/15 08:45:29;;;;;;;6.53;5.83;;;;;;;7.45;100.00;100136.28;4984397;28;20207;-66
2023/04/15 08:47:57;;;;;;;7.50;6.70;;;;;;;7.45;100.00;100143.38;4983066;28;20204;-67
2023/04/15 08:50:26;;;;;;;6.83;6.13;;;;;;;7.46;100.00;100137.16;4985875;28;20215;-65
2023/04/15 08:52:55;;;;;;;6.97;6.10;;;;;;;7.45;100.00;100140.75;4983975;28;20621;-67
2023/04/15 08:55:23;;;;;;;6.67;6.07;;;;;;;7.47;100.00;100137.06;4983895;28;20234;-71
2023/04/15 08:57:50;;;;;;;7.30;6.13;;;;;;;7.49;100.00;100136.97;4983358;28;20227;-68
2023/04/15 09:00:18;;;;;;;6.63;5.97;;;;;;;7.50;100.00;100136.88;4985154;28;20216;-67
2023/04/15 09:02:45;;;;;;;7.43;5.97;;;;;;;7.51;100.00;100132.44;4978955;28;20246;-69
2023/04/15 09:05:12;;;;;;;6.50;5.50;;;;;;;7.50;100.00;100143.97;4984391;28;20214;-67
2023/04/15 09:07:38;;;;;;;6.07;5.47;;;;;;;7.52;100.00;100150.91;4983577;28;20215;-66
2023/04/15 09:10:07;;;;;;;6.60;5.57;;;;;;;7.56;100.00;100170.09;4988618;28;20208;-67
2023/04/15 09:12:35;;;;;;;5.67;5.07;;;;;;;7.56;100.00;100163.00;4982614;28;20227;-67
2023/04/15 09:15:02;;;;;;;5.50;4.97;;;;;;;7.57;100.00;100164.72;4986252;28;20242;-68
2023/04/15 09:17:28;;;;;;;5.03;4.53;;;;;;;7.60;100.00;100172.47;4984642;28;22658;-68
2023/04/15 09:20:08;;;;;;;5.30;4.80;;;;;;;7.61;100.00;100158.28;4986472;28;20253;-66
2023/04/15 09:22:36;;;;;;;5.43;4.57;;;;;;;7.61;100.00;100165.38;4983762;28;20223;-66
2023/04/15 09:25:02;;;;;;;4.67;4.07;;;;;;;7.61;100.00;100168.91;4984376;28;20203;-67
2023/04/15 09:27:30;;;;;;;5.97;4.20;;;;;;;7.62;100.00;100161.78;4984452;28;20208;-68
2023/04/15 09:29:56;;;;;;;5.03;4.50;;;;;;;7.61;100.00;100153.00;4984720;28;20230;-69
2023/04/15 09:32:23;;;;;;;4.83;4.33;;;;;;;7.62;100.00;100156.50;4984001;28;20696;-66
2023/04/15 09:34:50;;;;;;;5.00;4.40;;;;;;;7.64;100.00;100168.72;4982205;28;20204;-69
2023/04/15 09:37:19;;;;;;;5.40;4.00;;;;;;;7.65;100.00;100167.78;4982626;28;20207;-65
2023/04/15 09:39:48;;;;;;;4.20;3.77;;;;;;;7.66;100.00;100173.94;4981527;28;20711;-68
2023/04/15 09:42:16;;;;;;;5.63;4.60;;;;;;;7.66;100.00;100180.09;4980140;28;20242;-68
2023/04/15 09:44:44;;;;;;;5.53;4.40;;;;;;;7.70;100.00;100178.13;4982896;28;20204;-69
2023/04/15 09:47:27;;;;;;;4.70;3.83;;;;;;;7.72;100.00;100172.69;4984831;28;20224;-68
2023/04/15 09:49:56;;;;;;;4.53;3.83;;;;;;;7.73;100.00;100177.91;4983992;28;20266;-68
2023/04/15 09:52:22;;;;;;;4.80;3.93;;;;;;;7.75;100.00;100178.69;4985918;28;21044;-67
2023/04/15 09:54:53;;;;;;;4.07;3.53;;;;;;;7.77;100.00;100184.75;4984819;28;20219;-68
2023/04/15 09:57:20;;;;;;;5.17;4.43;;;;;;;7.78;100.00;100182.94;4985479;28;20705;-67
2023/04/15 09:59:48;;;;;;;7.33;5.13;;;;;;;7.80;100.00;100187.22;4985219;28;20219;-68
2023/04/15 10:02:17;;;;;;;6.53;4.63;;;;;;;7.82;100.00;100195.09;4985186;28;20235;-69
2023/04/15 10:04:45;;;;;;;6.23;5.00;;;;;;;7.82;100.00;100185.34;4984899;28;20594;-68
2023/04/15 10:07:12;;;;;;;6.40;4.90;;;;;;;7.85;100.00;100189.59;4986132;28;20207;-70
2023/04/15 10:09:39;;;;;;;6.57;4.87;;;;;;;7.87;100.00;100188.56;4983859;28;20200;-69
2023/04/15 10:12:06;;;;;;;6.73;5.63;;;;;;;7.91;100.00;100183.91;4987096;28;20756;-66
2023/04/15 10:14:34;;;;;;;6.80;5.20;;;;;;;7.91;100.00;100184.78;4985088;28;20371;-67
2023/04/15 10:17:05;;;;;;;5.97;4.97;;;;;;;7.93;100.00;100192.63;4986039;28;20212;-68
2023/04/15 10:19:33;;;;;;;6.43;5.40;;;;;;;7.95;100.00;100186.31;4984772;28;20661;-68
2023/04/15 10:22:00;;;;;;;8.87;6.13;;;;;;;7.95;100.00;100185.44;4981908;28;20232;-68
2023/04/15 10:24:28;;;;;;;8.00;5.83;;;;;;;7.98;100.00;100187.91;4982243;28;20207;-67
2023/04/15 10:26:56;;;;;;;10.00;6.87;;;;;;;8.00;100.00;100191.34;4978454;28;20499;-68
2023/04/15 10:29:24;;;;;;;8.20;6.10;;;;;;;8.03;100.00;100188.50;4981186;28;20270;-67
2023/04/15 10:31:53;;;;;;;10.10;6.73;;;;;;;8.04;100.00;100182.25;4984385;28;20237;-67
2023/04/15 10:34:22;;;;;;;8.73;6.70;;;;;;;8.06;100.00;100190.13;4980194;28;20672;-66
2023/04/15 10:36:49;;;;;;;10.13;6.80;;;;;;;8.08;100.00;100186.41;4979840;28;20215;-70
2023/04/15 10:39:44;;;;;;;11.23;7.60;;;;;;;8.10;100.00;100195.13;4977622;28;20278;-65
2023/04/15 10:42:12;;;;;;;10.30;7.47;;;;;;;8.12;100.00;100195.03;4983563;28;20238;-67
2023/04/15 10:44:39;;;;;;;10.77;7.50;;;;;;;8.15;100.00;100190.41;4980427;28;20208;-68
2023/04/15 10:47:11;;;;;;;10.33;8.73;;;;;;;8.19;100.00;100191.09;4984779;28;20203;-68
2023/04/15 10:49:45;;;;;;;10.80;8.07;;;;;;;8.21;100.00;100191.84;4982872;28;20643;-68
2023/04/15 10:52:12;;;;;;;10.87;8.20;;;;;;;8.23;100.00;100190.81;4983030;28;20240;-66
2023/04/15 10:54:39;;;;;;;12.00;8.70;;;;;;;8.24;100.00;100191.66;4983254;28;20196;-68
2023/04/15 10:57:14;;;;;;;13.40;8.90;;;;;;;8.25;100.00;100191.53;4981370;28;20239;-67
2023/04/15 11:00:16;;;;;;;12.83;9.43;;;;;;;8.28;100.00;100194.00;4982175;28;20223;-67
2023/04/15 11:02:46;;;;;;;13.07;9.40;;;;;;;8.29;100.00;100193.06;4975234;28;20235;-67
2023/04/15 11:05:14;;;;;;;15.13;10.30;;;;;;;8.30;100.00;100194.78;4984520;28;20286;-67
2023/04/15 11:07:48;;;;;;;14.23;9.83;;;;;;;8.30;100.00;100192.13;4980790;28;20204;-67
2023/04/15 11:10:52;;;;;;;14.60;10.03;;;;;;;8.32;100.00;100195.56;4979936;28;20285;-68
2023/04/15 11:13:22;;;;;;;14.73;10.37;;;;;;;8.37;100.00;100197.09;4976864;28;20294;-67
2023/04/15 11:15:50;;;;;;;16.70;10.53;;;;;;;8.39;100.00;100192.56;4982089;28;20266;-67
2023/04/15 11:18:19;;;;;;;18.73;11.27;;;;;;;8.40;100.00;100196.91;4977346;28;20207;-67
2023/04/15 11:20:49;;;;;;;16.90;11.23;;;;;;;8.43;100.00;100199.34;4980196;28;20230;-66
2023/04/15 11:23:17;;;;;;;18.87;11.83;;;;;;;8.45;100.00;100202.78;4982139;28;20735;-68